sensor_id;sensor_type;location;lat;lon;timestamp;pressure;altitude;pressure_sealevel;temperature;humidity
21273;BME280;36726;52.328;10.552;2023-01-01T00:02:22;99977.78;;;14.36;73.36
21273;BME280;36726;52.328;10.552;2023-01-01T00:04:48;99964.44;;;14.38;73.28
21273;BME280;36726;52.328;10.552;2023-01-01T00:07:15;99966.19;;;14.40;73.22
21273;BME280;36726;52.328;10.552;2023-01-01T00:09:41;99969.72;;;14.41;72.85
21273;BME280;36726;52.328;10.552;2023-01-01T00:12:27;99961.72;;;14.41;72.27
21273;BME280;36726;52.328;10.552;2023-01-01T00:14:53;99966.19;;;14.40;72.37
21273;BME280;36726;52.328;10.552;2023-01-01T00:17:20;99960.88;;;14.39;72.55
21273;BME280;36726;52.328;10.552;2023-01-01T00:19:46;99956.47;;;14.38;72.42
21273;BME280;36726;52.328;10.552;2023-01-01T00:22:13;99957.31;;;14.40;72.27
21273;BME280;36726;52.328;10.552;2023-01-01T00:24:59;99962.59;;;14.43;72.73
21273;BME280;36726;52.328;10.552;2023-01-01T00:27:26;99954.59;;;14.44;72.71
21273;BME280;36726;52.328;10.552;2023-01-01T00:29:52;99959.03;;;14.45;72.50
21273;BME280;36726;52.328;10.552;2023-01-01T00:32:19;99959.00;;;14.47;72.22
21273;BME280;36726;52.328;10.552;2023-01-01T00:34:48;99967.84;;;14.49;72.03
21273;BME280;36726;52.328;10.552;2023-01-01T00:37:15;99974.94;;;14.50;71.43
21273;BME280;36726;52.328;10.552;2023-01-01T00:39:43;99971.38;;;14.51;71.71
21273;BME280;36726;52.328;10.552;2023-01-01T00:42:10;99969.59;;;14.53;70.82
21273;BME280;36726;52.328;10.552;2023-01-01T00:44:37;99976.63;;;14.55;71.36
21273;BME280;36726;52.328;10.552;2023-01-01T00:47:03;99979.28;;;14.57;71.32
21273;BME280;36726;52.328;10.552;2023-01-01T00:49:30;99975.75;;;14.57;71.00
21273;BME280;36726;52.328;10.552;2023-01-01T00:51:56;99976.59;;;14.57;70.73
21273;BME280;36726;52.328;10.552;2023-01-01T00:54:23;99973.94;;;14.59;70.98
21273;BME280;36726;52.328;10.552;2023-01-01T00:56:49;99986.34;;;14.60;70.14
21273;BME280;36726;52.328;10.552;2023-01-01T00:59:16;99988.09;;;14.61;70.08
21273;BME280;36726;52.328;10.552;2023-01-01T01:01:42;99980.97;;;14.63;70.19
21273;BME280;36726;52.328;10.552;2023-01-01T01:04:09;99970.31;;;14.64;69.99
21273;BME280;36726;52.328;10.552;2023-01-01T01:06:36;99987.13;;;14.66;70.21
21273;BME280;36726;52.328;10.552;2023-01-01T01:09:03;99981.81;;;14.66;69.76
21273;BME280;36726;52.328;10.552;2023-01-01T01:11:30;99983.59;;;14.67;69.13
21273;BME280;36726;52.328;10.552;2023-01-01T01:13:56;99981.78;;;14.69;68.64
21273;BME280;36726;52.328;10.552;2023-01-01T01:16:25;99974.69;;;14.71;68.77
21273;BME280;36726;52.328;10.552;2023-01-01T01:18:54;99971.09;;;14.72;69.51
21273;BME280;36726;52.328;10.552;2023-01-01T01:21:22;99977.28;;;14.74;68.82
21273;BME280;36726;52.328;10.552;2023-01-01T01:23:49;99989.69;;;14.75;69.19
21273;BME280;36726;52.328;10.552;2023-01-01T01:26:19;99981.69;;;14.75;68.64
21273;BME280;36726;52.328;10.552;2023-01-01T01:28:46;99977.28;;;14.74;68.44
21273;BME280;36726;52.328;10.552;2023-01-01T01:31:16;99980.81;;;14.76;68.55
21273;BME280;36726;52.328;10.552;2023-01-01T01:33:44;99980.84;;;14.75;69.04
21273;BME280;36726;52.328;10.552;2023-01-01T01:36:12;99980.84;;;14.75;69.00
21273;BME280;36726;52.328;10.552;2023-01-01T01:38:39;99987.94;;;14.74;68.72
21273;BME280;36726;52.328;10.552;2023-01-01T01:41:06;99995.00;;;14.75;69.01
21273;BME280;36726;52.328;10.552;2023-01-01T01:48:36;99979.94;;;14.74;67.75
21273;BME280;36726;52.328;10.552;2023-01-01T01:51:04;99986.16;;;14.75;68.26
21273;BME280;36726;52.328;10.552;2023-01-01T01:53:34;100006.59;;;14.70;68.04
21273;BME280;36726;52.328;10.552;2023-01-01T01:56:07;99992.50;;;14.63;67.99
21273;BME280;36726;52.328;10.552;2023-01-01T01:58:35;99997.00;;;14.60;67.67
21273;BME280;36726;52.328;10.552;2023-01-01T02:01:02;99995.22;;;14.60;67.61
21273;BME280;36726;52.328;10.552;2023-01-01T02:03:34;100004.06;;;14.64;68.00
21273;BME280;36726;52.328;10.552;2023-01-01T02:06:02;99993.34;;;14.67;67.88
21273;BME280;36726;52.328;10.552;2023-01-01T02:08:29;99985.34;;;14.68;67.98
21273;BME280;36726;52.328;10.552;2023-01-01T02:10:56;99996.88;;;14.69;67.46
21273;BME280;36726;52.328;10.552;2023-01-01T02:13:23;99997.78;;;14.66;67.49
21273;BME280;36726;52.328;10.552;2023-01-01T02:18:45;99987.16;;;14.65;67.34
21273;BME280;36726;52.328;10.552;2023-01-01T02:21:29;99979.25;;;14.60;66.74
21273;BME280;36726;52.328;10.552;2023-01-01T02:27:16;99987.31;;;14.54;67.99
21273;BME280;36726;52.328;10.552;2023-01-01T02:30:02;99991.75;;;14.52;68.33
21273;BME280;36726;52.328;10.552;2023-01-01T02:32:53;99992.69;;;14.51;67.98
21273;BME280;36726;52.328;10.552;2023-01-01T02:35:28;100000.69;;;14.49;68.29
21273;BME280;36726;52.328;10.552;2023-01-01T02:38:20;100006.97;;;14.44;68.21
21273;BME280;36726;52.328;10.552;2023-01-01T02:41:01;100005.22;;;14.40;68.67
21273;BME280;36726;52.328;10.552;2023-01-01T02:43:29;100018.56;;;14.35;68.16
21273;BME280;36726;52.328;10.552;2023-01-01T02:45:55;100010.66;;;14.31;68.50
21273;BME280;36726;52.328;10.552;2023-01-01T02:48:43;100023.94;;;14.31;68.80
21273;BME280;36726;52.328;10.552;2023-01-01T02:53:44;100016.88;;;14.28;69.13
21273;BME280;36726;52.328;10.552;2023-01-01T02:56:36;100012.44;;;14.26;69.31
21273;BME280;36726;52.328;10.552;2023-01-01T02:59:34;100012.47;;;14.23;69.43
21273;BME280;36726;52.328;10.552;2023-01-01T03:08:11;100006.44;;;14.07;69.56
21273;BME280;36726;52.328;10.552;2023-01-01T03:10:51;100017.94;;;14.06;69.54
21273;BME280;36726;52.328;10.552;2023-01-01T03:18:54;100022.50;;;13.97;69.62
21273;BME280;36726;52.328;10.552;2023-01-01T03:24:07;100017.22;;;13.92;69.04
21273;BME280;36726;52.328;10.552;2023-01-01T03:26:37;100019.91;;;13.89;69.22
21273;BME280;36726;52.328;10.552;2023-01-01T03:29:09;100016.34;;;13.89;69.42
21273;BME280;36726;52.328;10.552;2023-01-01T03:31:41;100029.66;;;13.92;68.98
21273;BME280;36726;52.328;10.552;2023-01-01T03:34:14;100025.16;;;13.97;68.65
21273;BME280;36726;52.328;10.552;2023-01-01T03:36:46;100033.06;;;14.03;68.48
21273;BME280;36726;52.328;10.552;2023-01-01T03:39:35;100030.34;;;14.09;67.76
21273;BME280;36726;52.328;10.552;2023-01-01T03:42:23;100023.28;;;14.08;68.02
21273;BME280;36726;52.328;10.552;2023-01-01T03:44:56;100021.50;;;14.07;68.36
21273;BME280;36726;52.328;10.552;2023-01-01T03:47:23;100015.28;;;14.06;68.38
21273;BME280;36726;52.328;10.552;2023-01-01T03:49:50;100026.84;;;14.04;68.06
21273;BME280;36726;52.328;10.552;2023-01-01T03:55:05;100027.75;;;14.01;67.57
21273;BME280;36726;52.328;10.552;2023-01-01T03:57:41;100021.59;;;14.01;67.78
21273;BME280;36726;52.328;10.552;2023-01-01T04:00:13;100018.97;;;13.95;67.41
21273;BME280;36726;52.328;10.552;2023-01-01T04:02:50;100015.47;;;13.91;67.52
21273;BME280;36726;52.328;10.552;2023-01-01T04:05:18;100021.69;;;13.89;67.38
21273;BME280;36726;52.328;10.552;2023-01-01T04:07:46;100027.00;;;13.89;67.83
21273;BME280;36726;52.328;10.552;2023-01-01T04:10:13;100022.59;;;13.86;67.70
21273;BME280;36726;52.328;10.552;2023-01-01T04:12:45;100019.09;;;13.83;67.18
21273;BME280;36726;52.328;10.552;2023-01-01T04:15:12;100017.38;;;13.77;67.93
21273;BME280;36726;52.328;10.552;2023-01-01T04:17:39;100006.75;;;13.73;67.59
21273;BME280;36726;52.328;10.552;2023-01-01T04:20:06;100012.09;;;13.71;67.04
21273;BME280;36726;52.328;10.552;2023-01-01T04:22:34;100019.22;;;13.68;67.73
21273;BME280;36726;52.328;10.552;2023-01-01T04:25:01;100021.91;;;13.63;67.92
21273;BME280;36726;52.328;10.552;2023-01-01T04:27:27;100010.44;;;13.58;67.58
21273;BME280;36726;52.328;10.552;2023-01-01T04:29:54;100023.75;;;13.55;67.89
21273;BME280;36726;52.328;10.552;2023-01-01T04:32:21;100029.09;;;13.50;67.98
21273;BME280;36726;52.328;10.552;2023-01-01T04:34:48;100032.66;;;13.49;68.08
21273;BME280;36726;52.328;10.552;2023-01-01T04:37:15;100037.09;;;13.47;67.99
21273;BME280;36726;52.328;10.552;2023-01-01T04:39:41;100037.13;;;13.44;67.92
21273;BME280;36726;52.328;10.552;2023-01-01T04:42:08;100039.78;;;13.44;67.66
21273;BME280;36726;52.328;10.552;2023-01-01T04:44:35;100043.31;;;13.46;68.11
21273;BME280;36726;52.328;10.552;2023-01-01T04:47:01;100043.31;;;13.46;68.24
21273;BME280;36726;52.328;10.552;2023-01-01T04:49:28;100046.81;;;13.47;68.44
21273;BME280;36726;52.328;10.552;2023-01-01T04:51:55;100043.31;;;13.43;68.01
21273;BME280;36726;52.328;10.552;2023-01-01T04:54:21;100039.78;;;13.41;68.36
21273;BME280;36726;52.328;10.552;2023-01-01T04:56:48;100053.97;;;13.40;67.99
21273;BME280;36726;52.328;10.552;2023-01-01T04:59:14;100060.16;;;13.39;67.71
21273;BME280;36726;52.328;10.552;2023-01-01T05:01:41;100064.63;;;13.37;68.27
21273;BME280;36726;52.328;10.552;2023-01-01T05:04:11;100061.97;;;13.33;68.54
21273;BME280;36726;52.328;10.552;2023-01-01T05:06:38;100056.69;;;13.30;68.77
21273;BME280;36726;52.328;10.552;2023-01-01T05:09:05;100071.78;;;13.26;68.32
21273;BME280;36726;52.328;10.552;2023-01-01T05:11:31;100071.78;;;13.23;68.30
21273;BME280;36726;52.328;10.552;2023-01-01T05:13:59;100064.75;;;13.19;68.81
21273;BME280;36726;52.328;10.552;2023-01-01T05:16:28;100067.38;;;13.16;68.62
21273;BME280;36726;52.328;10.552;2023-01-01T05:18:55;100068.28;;;13.15;68.76
21273;BME280;36726;52.328;10.552;2023-01-01T05:21:30;100066.50;;;13.17;68.52
21273;BME280;36726;52.328;10.552;2023-01-01T05:24:02;100083.31;;;13.19;68.70
21273;BME280;36726;52.328;10.552;2023-01-01T05:26:32;100085.97;;;13.22;68.50
21273;BME280;36726;52.328;10.552;2023-01-01T05:28:59;100078.84;;;13.27;68.40
21273;BME280;36726;52.328;10.552;2023-01-01T05:31:28;100087.66;;;13.32;68.39
21273;BME280;36726;52.328;10.552;2023-01-01T05:33:55;100092.06;;;13.36;68.12
21273;BME280;36726;52.328;10.552;2023-01-01T05:36:27;100092.94;;;13.38;67.81
21273;BME280;36726;52.328;10.552;2023-01-01T05:38:54;100093.84;;;13.39;67.60
21273;BME280;36726;52.328;10.552;2023-01-01T05:41:21;100097.34;;;13.42;67.85
21273;BME280;36726;52.328;10.552;2023-01-01T05:43:49;100106.22;;;13.43;67.83
21273;BME280;36726;52.328;10.552;2023-01-01T05:46:18;100099.09;;;13.46;67.42
21273;BME280;36726;52.328;10.552;2023-01-01T05:48:45;100099.06;;;13.49;67.65
21273;BME280;36726;52.328;10.552;2023-01-01T05:51:15;100107.00;;;13.52;67.32
21273;BME280;36726;52.328;10.552;2023-01-01T05:53:42;100110.53;;;13.54;67.58
21273;BME280;36726;52.328;10.552;2023-01-01T05:56:11;100109.66;;;13.56;67.44
21273;BME280;36726;52.328;10.552;2023-01-01T05:58:38;100099.88;;;13.57;67.45
21273;BME280;36726;52.328;10.552;2023-01-01T06:01:10;100116.72;;;13.60;67.35
21273;BME280;36726;52.328;10.552;2023-01-01T06:03:39;100104.31;;;13.60;67.59
21273;BME280;36726;52.328;10.552;2023-01-01T06:06:09;100105.19;;;13.62;67.13
21273;BME280;36726;52.328;10.552;2023-01-01T06:08:35;100113.13;;;13.65;67.25
21273;BME280;36726;52.328;10.552;2023-01-01T06:11:04;100121.09;;;13.67;66.89
21273;BME280;36726;52.328;10.552;2023-01-01T06:13:32;100110.47;;;13.68;67.01
21273;BME280;36726;52.328;10.552;2023-01-01T06:16:00;100119.31;;;13.69;67.02
21273;BME280;36726;52.328;10.552;2023-01-01T06:18:32;100124.63;;;13.69;66.40
21273;BME280;36726;52.328;10.552;2023-01-01T06:21:11;100132.59;;;13.70;67.01
21273;BME280;36726;52.328;10.552;2023-01-01T06:23:38;100129.06;;;13.70;67.46
21273;BME280;36726;52.328;10.552;2023-01-01T06:26:10;100137.06;;;13.68;67.16
21273;BME280;36726;52.328;10.552;2023-01-01T06:28:38;100146.78;;;13.69;67.10
21273;BME280;36726;52.328;10.552;2023-01-01T06:31:07;100152.13;;;13.66;67.01
21273;BME280;36726;52.328;10.552;2023-01-01T06:33:34;100154.78;;;13.63;67.17
21273;BME280;36726;52.328;10.552;2023-01-01T06:36:03;100144.16;;;13.62;67.20
21273;BME280;36726;52.328;10.552;2023-01-01T06:38:31;100149.50;;;13.60;67.34
21273;BME280;36726;52.328;10.552;2023-01-01T06:41:00;100158.34;;;13.61;67.29
21273;BME280;36726;52.328;10.552;2023-01-01T06:43:29;100161.88;;;13.60;67.39
21273;BME280;36726;52.328;10.552;2023-01-01T06:46:06;100148.63;;;13.57;67.46
21273;BME280;36726;52.328;10.552;2023-01-01T06:48:35;100161.94;;;13.50;67.72
21273;BME280;36726;52.328;10.552;2023-01-01T06:51:16;100154.88;;;13.43;67.83
21273;BME280;36726;52.328;10.552;2023-01-01T06:53:43;100150.53;;;13.35;68.01
21273;BME280;36726;52.328;10.552;2023-01-01T06:56:09;100150.53;;;13.32;68.18
21273;BME280;36726;52.328;10.552;2023-01-01T06:58:36;100150.53;;;13.29;68.43
21273;BME280;36726;52.328;10.552;2023-01-01T07:03:34;100179.78;;;13.20;68.85
21273;BME280;36726;52.328;10.552;2023-01-01T07:06:02;100186.88;;;13.21;68.84
21273;BME280;36726;52.328;10.552;2023-01-01T07:08:28;100195.75;;;13.18;68.91
21273;BME280;36726;52.328;10.552;2023-01-01T07:10:55;100206.38;;;13.15;69.12
21273;BME280;36726;52.328;10.552;2023-01-01T07:13:23;100202.84;;;13.13;69.72
21273;BME280;36726;52.328;10.552;2023-01-01T07:15:50;100201.97;;;13.11;69.82
21273;BME280;36726;52.328;10.552;2023-01-01T07:18:21;100204.63;;;13.11;69.99
21273;BME280;36726;52.328;10.552;2023-01-01T07:20:50;100207.25;;;13.14;70.07
21273;BME280;36726;52.328;10.552;2023-01-01T07:23:17;100212.56;;;13.17;70.44
21273;BME280;36726;52.328;10.552;2023-01-01T07:25:44;100221.41;;;13.21;70.38
21273;BME280;36726;52.328;10.552;2023-01-01T07:28:11;100224.94;;;13.24;70.54
21273;BME280;36726;52.328;10.552;2023-01-01T07:30:38;100227.59;;;13.26;70.23
21273;BME280;36726;52.328;10.552;2023-01-01T07:33:04;100234.66;;;13.25;70.60
21273;BME280;36726;52.328;10.552;2023-01-01T07:35:31;100233.78;;;13.22;71.14
21273;BME280;36726;52.328;10.552;2023-01-01T07:37:57;100223.19;;;13.25;71.12
21273;BME280;36726;52.328;10.552;2023-01-01T07:40:24;100222.25;;;13.27;71.35
21273;BME280;36726;52.328;10.552;2023-01-01T07:42:50;100219.63;;;13.30;71.44
21273;BME280;36726;52.328;10.552;2023-01-01T07:45:17;100222.25;;;13.35;71.37
21273;BME280;36726;52.328;10.552;2023-01-01T07:47:48;100232.88;;;13.35;71.41
21273;BME280;36726;52.328;10.552;2023-01-01T07:50:16;100249.69;;;13.37;71.25
21273;BME280;36726;52.328;10.552;2023-01-01T07:52:43;100250.56;;;13.40;71.69
21273;BME280;36726;52.328;10.552;2023-01-01T07:55:14;100254.06;;;13.45;71.41
21273;BME280;36726;52.328;10.552;2023-01-01T07:57:41;100257.63;;;13.47;71.42
21273;BME280;36726;52.328;10.552;2023-01-01T08:00:11;100284.16;;;13.50;71.59
21273;BME280;36726;52.328;10.552;2023-01-01T08:02:42;100277.06;;;13.54;71.46
21273;BME280;36726;52.328;10.552;2023-01-01T08:05:09;100285.91;;;13.57;71.20
21273;BME280;36726;52.328;10.552;2023-01-01T08:07:36;100285.03;;;13.60;71.21
21273;BME280;36726;52.328;10.552;2023-01-01T08:10:04;100281.47;;;13.63;71.50
21273;BME280;36726;52.328;10.552;2023-01-01T08:12:31;100299.16;;;13.67;71.34
21273;BME280;36726;52.328;10.552;2023-01-01T08:14:58;100295.63;;;13.69;71.41
21273;BME280;36726;52.328;10.552;2023-01-01T08:17:24;100306.22;;;13.71;71.33
21273;BME280;36726;52.328;10.552;2023-01-01T08:19:51;100312.44;;;13.71;71.54
21273;BME280;36726;52.328;10.552;2023-01-01T08:22:18;100307.13;;;13.73;71.81
21273;BME280;36726;52.328;10.552;2023-01-01T08:24:44;100315.06;;;13.76;71.62
21273;BME280;36726;52.328;10.552;2023-01-01T08:27:13;100312.44;;;13.77;71.90
21273;BME280;36726;52.328;10.552;2023-01-01T08:29:40;100301.78;;;13.79;71.89
21273;BME280;36726;52.328;10.552;2023-01-01T08:32:08;100310.63;;;13.84;71.84
21273;BME280;36726;52.328;10.552;2023-01-01T08:34:35;100313.25;;;13.87;71.66
21273;BME280;36726;52.328;10.552;2023-01-01T08:37:01;100311.50;;;13.87;71.84
21273;BME280;36726;52.328;10.552;2023-01-01T08:39:28;100309.72;;;13.89;71.50
21273;BME280;36726;52.328;10.552;2023-01-01T08:41:55;100325.66;;;13.91;71.68
21273;BME280;36726;52.328;10.552;2023-01-01T08:44:22;100320.31;;;13.92;71.53
21273;BME280;36726;52.328;10.552;2023-01-01T08:46:51;100330.97;;;13.95;71.51
21273;BME280;36726;52.328;10.552;2023-01-01T08:49:18;100309.69;;;13.97;71.26
21273;BME280;36726;52.328;10.552;2023-01-01T08:51:45;100311.44;;;13.96;71.03
21273;BME280;36726;52.328;10.552;2023-01-01T08:54:11;100319.44;;;13.95;70.95
21273;BME280;36726;52.328;10.552;2023-01-01T08:56:38;100325.63;;;13.92;70.79
21273;BME280;36726;52.328;10.552;2023-01-01T08:59:04;100331.00;;;13.88;70.73
21273;BME280;36726;52.328;10.552;2023-01-01T09:01:31;100337.19;;;13.85;70.69
21273;BME280;36726;52.328;10.552;2023-01-01T09:03:58;100337.22;;;13.82;70.75
21273;BME280;36726;52.328;10.552;2023-01-01T09:06:25;100337.22;;;13.81;71.11
21273;BME280;36726;52.328;10.552;2023-01-01T09:08:51;100338.97;;;13.82;70.79
21273;BME280;36726;52.328;10.552;2023-01-01T09:11:26;100346.06;;;13.81;70.29
21273;BME280;36726;52.328;10.552;2023-01-01T09:13:53;100349.63;;;13.82;70.60
21273;BME280;36726;52.328;10.552;2023-01-01T09:16:20;100369.09;;;13.84;70.67
21273;BME280;36726;52.328;10.552;2023-01-01T09:18:47;100373.53;;;13.85;70.54
21273;BME280;36726;52.328;10.552;2023-01-01T09:21:14;100379.72;;;13.90;70.62
21273;BME280;36726;52.328;10.552;2023-01-01T09:23:41;100390.34;;;13.93;70.78
21273;BME280;36726;52.328;10.552;2023-01-01T09:26:08;100407.16;;;13.96;70.87
21273;BME280;36726;52.328;10.552;2023-01-01T09:28:36;100392.97;;;13.97;70.83
21273;BME280;36726;52.328;10.552;2023-01-01T09:31:04;100409.81;;;13.99;70.68
21273;BME280;36726;52.328;10.552;2023-01-01T09:33:32;100411.59;;;13.99;70.62
21273;BME280;36726;52.328;10.552;2023-01-01T09:36:25;100428.44;;;14.01;70.92
21273;BME280;36726;52.328;10.552;2023-01-01T09:38:53;100429.28;;;14.03;70.78
21273;BME280;36726;52.328;10.552;2023-01-01T09:41:36;100442.59;;;14.03;71.28
21273;BME280;36726;52.328;10.552;2023-01-01T09:44:13;100431.97;;;14.04;71.21
21273;BME280;36726;52.328;10.552;2023-01-01T09:46:44;100422.19;;;14.06;71.06
21273;BME280;36726;52.328;10.552;2023-01-01T09:49:16;100438.16;;;14.08;70.65
21273;BME280;36726;52.328;10.552;2023-01-01T09:51:53;100445.25;;;14.07;71.34
21273;BME280;36726;52.328;10.552;2023-01-01T09:54:44;100460.31;;;14.08;71.17
21273;BME280;36726;52.328;10.552;2023-01-01T09:57:12;100458.53;;;14.09;70.88
21273;BME280;36726;52.328;10.552;2023-01-01T09:59:45;100455.88;;;14.09;71.25
21273;BME280;36726;52.328;10.552;2023-01-01T10:05:27;100452.34;;;14.13;71.49
21273;BME280;36726;52.328;10.552;2023-01-01T10:13:38;100475.38;;;14.17;71.65
21273;BME280;36726;52.328;10.552;2023-01-01T10:18:53;100470.03;;;14.20;71.80
21273;BME280;36726;52.328;10.552;2023-01-01T10:21:28;100466.47;;;14.21;71.12
21273;BME280;36726;52.328;10.552;2023-01-01T10:24:02;100458.50;;;14.21;71.63
21273;BME280;36726;52.328;10.552;2023-01-01T10:26:31;100460.28;;;14.22;71.15
21273;BME280;36726;52.328;10.552;2023-01-01T10:31:40;100470.94;;;14.20;71.28
21273;BME280;36726;52.328;10.552;2023-01-01T10:36:45;100469.16;;;14.19;71.35
21273;BME280;36726;52.328;10.552;2023-01-01T10:39:16;100470.94;;;14.20;71.44
21273;BME280;36726;52.328;10.552;2023-01-01T10:41:43;100470.94;;;14.20;71.45
21273;BME280;36726;52.328;10.552;2023-01-01T10:44:11;100488.66;;;14.21;70.78
21273;BME280;36726;52.328;10.552;2023-01-01T10:46:45;100499.28;;;14.21;71.01
21273;BME280;36726;52.328;10.552;2023-01-01T10:49:14;100504.59;;;14.24;71.11
21273;BME280;36726;52.328;10.552;2023-01-01T10:51:44;100515.22;;;14.24;70.97
21273;BME280;36726;52.328;10.552;2023-01-01T10:54:31;100506.38;;;14.24;70.18
21273;BME280;36726;52.328;10.552;2023-01-01T10:57:12;100517.91;;;14.26;70.68
21273;BME280;36726;52.328;10.552;2023-01-01T10:59:40;100509.94;;;14.21;70.92
21273;BME280;36726;52.328;10.552;2023-01-01T11:02:22;100528.59;;;14.17;71.85
21273;BME280;36726;52.328;10.552;2023-01-01T11:04:51;100517.94;;;14.14;72.59
21273;BME280;36726;52.328;10.552;2023-01-01T11:07:36;100521.50;;;14.10;73.14
21273;BME280;36726;52.328;10.552;2023-01-01T11:10:05;100517.06;;;14.06;74.20
21273;BME280;36726;52.328;10.552;2023-01-01T11:12:33;100518.84;;;14.02;74.75
21273;BME280;36726;52.328;10.552;2023-01-01T11:15:38;100525.06;;;13.97;75.73
21273;BME280;36726;52.328;10.552;2023-01-01T11:18:13;100553.44;;;13.92;76.45
21273;BME280;36726;52.328;10.552;2023-01-01T11:20:41;100550.78;;;13.89;77.15
21273;BME280;36726;52.328;10.552;2023-01-01T11:23:28;100541.94;;;13.90;77.70
21273;BME280;36726;52.328;10.552;2023-01-01T11:28:28;100545.47;;;13.84;78.85
21273;BME280;36726;52.328;10.552;2023-01-01T11:31:17;100543.72;;;13.79;79.68
21273;BME280;36726;52.328;10.552;2023-01-01T11:33:53;100544.56;;;13.78;79.81
21273;BME280;36726;52.328;10.552;2023-01-01T11:36:22;100543.69;;;13.76;80.94
21273;BME280;36726;52.328;10.552;2023-01-01T11:39:03;100541.03;;;13.73;82.45
21273;BME280;36726;52.328;10.552;2023-01-01T11:41:48;100535.72;;;13.73;85.12
21273;BME280;36726;52.328;10.552;2023-01-01T11:44:39;100526.88;;;13.68;86.16
21273;BME280;36726;52.328;10.552;2023-01-01T11:47:40;100520.66;;;13.60;88.33
21273;BME280;36726;52.328;10.552;2023-01-01T11:52:52;100511.78;;;13.48;89.34
21273;BME280;36726;52.328;10.552;2023-01-01T11:57:57;100510.94;;;13.46;90.32
21273;BME280;36726;52.328;10.552;2023-01-01T12:00:28;100514.47;;;13.42;90.81
21273;BME280;36726;52.328;10.552;2023-01-01T12:03:00;100519.78;;;13.33;91.72
21273;BME280;36726;52.328;10.552;2023-01-01T12:05:43;100511.78;;;13.29;91.74
21273;BME280;36726;52.328;10.552;2023-01-01T12:08:18;100502.97;;;13.28;91.82
21273;BME280;36726;52.328;10.552;2023-01-01T12:10:53;100494.97;;;13.30;91.32
21273;BME280;36726;52.328;10.552;2023-01-01T12:13:24;100503.84;;;13.30;91.13
21273;BME280;36726;52.328;10.552;2023-01-01T12:16:15;100507.38;;;13.26;90.67
21273;BME280;36726;52.328;10.552;2023-01-01T12:18:54;100505.59;;;13.25;90.37
21273;BME280;36726;52.328;10.552;2023-01-01T12:21:27;100495.84;;;13.26;89.78
21273;BME280;36726;52.328;10.552;2023-01-01T12:23:54;100500.31;;;13.28;89.44
21273;BME280;36726;52.328;10.552;2023-01-01T12:26:33;100502.06;;;13.29;88.60
21273;BME280;36726;52.328;10.552;2023-01-01T12:45:43;100557.84;;;13.28;86.96
21273;BME280;36726;52.328;10.552;2023-01-01T12:51:45;100571.13;;;13.28;86.34
21273;BME280;36726;52.328;10.552;2023-01-01T12:54:46;100577.31;;;13.27;86.68
21273;BME280;36726;52.328;10.552;2023-01-01T12:57:39;100577.31;;;13.27;86.74
21273;BME280;36726;52.328;10.552;2023-01-01T13:00:15;100595.03;;;13.25;86.92
21273;BME280;36726;52.328;10.552;2023-01-01T13:05:27;100602.09;;;13.18;86.73
21273;BME280;36726;52.328;10.552;2023-01-01T13:07:59;100590.56;;;13.13;86.88
21273;BME280;36726;52.328;10.552;2023-01-01T13:10:36;100594.97;;;13.11;87.12
21273;BME280;36726;52.328;10.552;2023-01-01T13:13:04;100585.22;;;13.07;87.17
21273;BME280;36726;52.328;10.552;2023-01-01T13:18:04;100574.59;;;13.07;87.37
21273;BME280;36726;52.328;10.552;2023-01-01T13:20:35;100571.09;;;13.08;87.34
21273;BME280;36726;52.328;10.552;2023-01-01T13:23:04;100579.06;;;13.11;87.40
21273;BME280;36726;52.328;10.552;2023-01-01T13:25:31;100577.28;;;13.15;87.33
21273;BME280;36726;52.328;10.552;2023-01-01T13:33:21;100567.53;;;13.05;87.76
21273;BME280;36726;52.328;10.552;2023-01-01T13:38:44;100578.06;;;12.90;88.05
21273;BME280;36726;52.328;10.552;2023-01-01T13:41:42;100567.44;;;12.85;88.38
21273;BME280;36726;52.328;10.552;2023-01-01T13:44:11;100569.22;;;12.82;88.69
21273;BME280;36726;52.328;10.552;2023-01-01T14:00:04;100576.16;;;12.59;89.88
21273;BME280;36726;52.328;10.552;2023-01-01T14:02:42;100577.91;;;12.53;90.36
21273;BME280;36726;52.328;10.552;2023-01-01T14:05:26;100567.28;;;12.49;90.36
21273;BME280;36726;52.328;10.552;2023-01-01T14:07:55;100574.34;;;12.47;90.41
21273;BME280;36726;52.328;10.552;2023-01-01T14:12:52;100578.72;;;12.40;91.12
21273;BME280;36726;52.328;10.552;2023-01-01T14:15:51;100592.88;;;12.38;91.30
21273;BME280;36726;52.328;10.552;2023-01-01T14:18:21;100578.69;;;12.34;91.29
21273;BME280;36726;52.328;10.552;2023-01-01T14:20:51;100573.34;;;12.31;91.41
21273;BME280;36726;52.328;10.552;2023-01-01T14:25:59;100594.56;;;12.24;91.95
21273;BME280;36726;52.328;10.552;2023-01-01T14:28:29;100602.47;;;12.21;92.28
21273;BME280;36726;52.328;10.552;2023-01-01T14:30:58;100607.75;;;12.18;92.37
21273;BME280;36726;52.328;10.552;2023-01-01T14:33:36;100621.88;;;12.14;92.26
21273;BME280;36726;52.328;10.552;2023-01-01T14:36:14;100627.16;;;12.09;92.92
21273;BME280;36726;52.328;10.552;2023-01-01T14:38:46;100639.50;;;12.06;92.42
21273;BME280;36726;52.328;10.552;2023-01-01T14:41:18;100637.69;;;12.00;92.46
21273;BME280;36726;52.328;10.552;2023-01-01T14:43:48;100636.72;;;11.94;92.51
21273;BME280;36726;52.328;10.552;2023-01-01T14:46:22;100653.47;;;11.90;92.98
21273;BME280;36726;52.328;10.552;2023-01-01T14:48:55;100640.19;;;11.85;93.03
21273;BME280;36726;52.328;10.552;2023-01-01T14:51:27;100649.88;;;11.82;93.05
21273;BME280;36726;52.328;10.552;2023-01-01T14:53:58;100644.56;;;11.79;93.26